Time,TemperatureF,DewpointF,PressureIn,WindDirection,WindDirectionDegrees,WindSpeedMPH,WindSpeedGustMPH,Humidity,HourlyPrecipIn,Conditions,Clouds,dailyrainin,SolarRadiationWatts/m^2,SoftwareType,DateUTC
2013-03-18 00:02:00,20.0,9.0,-100.00,NW,310,8.0,12.0,62,0.00,,,0.00,0.000000,,2013-03-18 06:02:00,
2013-03-18 00:12:00,20.0,9.0,-100.00,NW,310,8.0,12.0,62,0.00,,,0.00,0.000000,,2013-03-18 06:12:00,
2013-03-18 00:21:00,19.0,7.0,-100.00,NW,310,5.0,17.0,60,0.00,,,0.00,0.000000,,2013-03-18 06:21:00,
2013-03-18 00:42:00,19.0,7.0,-100.00,NW,310,5.0,17.0,60,0.00,,,0.00,0.000000,,2013-03-18 06:42:00,
2013-03-18 00:52:00,19.0,7.0,-100.00,NW,310,5.0,17.0,60,0.00,,,0.00,0.000000,,2013-03-18 06:52:00,
2013-03-18 01:02:00,19.0,7.0,-100.00,NW,310,5.0,17.0,60,0.00,,,0.00,0.000000,,2013-03-18 07:02:00,
2013-03-18 01:12:00,19.0,7.0,-100.00,NW,310,5.0,17.0,60,0.00,,,0.00,0.000000,,2013-03-18 07:12:00,
2013-03-18 01:21:00,17.0,5.0,-100.00,West,267,5.0,12.0,59,0.00,,,0.00,0.000000,,2013-03-18 07:21:00,
2013-03-18 01:43:00,17.0,5.0,-100.00,West,267,5.0,12.0,59,0.00,,,0.00,0.000000,,2013-03-18 07:43:00,
2013-03-18 01:52:00,17.0,5.0,-100.00,West,267,5.0,12.0,59,0.00,,,0.00,0.000000,,2013-03-18 07:52:00,
2013-03-18 02:02:00,17.0,5.0,-100.00,West,267,5.0,12.0,59,0.00,,,0.00,0.000000,,2013-03-18 08:02:00,
2013-03-18 02:12:00,17.0,5.0,-100.00,West,267,5.0,12.0,59,0.00,,,0.00,0.000000,,2013-03-18 08:12:00,
2013-03-18 02:21:00,18.0,7.0,-100.00,West,274,4.0,9.0,61,0.00,,,0.00,0.000000,,2013-03-18 08:21:00,
2013-03-18 02:43:00,18.0,7.0,-100.00,West,274,4.0,9.0,61,0.00,,,0.00,0.000000,,2013-03-18 08:43:00,
2013-03-18 02:52:00,18.0,7.0,-100.00,West,274,4.0,9.0,61,0.00,,,0.00,0.000000,,2013-03-18 08:52:00,
2013-03-18 03:02:00,18.0,7.0,-100.00,West,274,4.0,9.0,61,0.00,,,0.00,0.000000,,2013-03-18 09:02:00,
2013-03-18 03:12:00,18.0,7.0,-100.00,West,274,4.0,9.0,61,0.00,,,0.00,0.000000,,2013-03-18 09:12:00,
2013-03-18 03:21:00,18.0,6.0,-100.00,NNW,342,2.0,9.0,60,0.00,,,0.00,0.000000,,2013-03-18 09:21:00,
2013-03-18 03:43:00,18.0,6.0,-100.00,NNW,342,2.0,9.0,60,0.00,,,0.00,0.000000,,2013-03-18 09:43:00,
2013-03-18 03:53:00,18.0,6.0,-100.00,NNW,342,2.0,9.0,60,0.00,,,0.00,0.000000,,2013-03-18 09:53:00,
2013-03-18 04:03:00,18.0,6.0,-100.00,NNW,342,2.0,9.0,60,0.00,,,0.00,0.000000,,2013-03-18 10:03:00,
2013-03-18 04:12:00,18.0,6.0,-100.00,NNW,342,2.0,9.0,60,0.00,,,0.00,0.000000,,2013-03-18 10:12:00,
2013-03-18 04:21:00,15.0,10.0,-100.00,ESE,122,7.0,9.0,79,0.00,,,0.00,0.000000,,2013-03-18 10:21:00,
2013-03-18 04:42:00,15.0,10.0,-100.00,ESE,122,7.0,9.0,79,0.00,,,0.00,0.000000,,2013-03-18 10:42:00,
2013-03-18 04:53:00,15.0,10.0,-100.00,ESE,122,7.0,9.0,79,0.00,,,0.00,0.000000,,2013-03-18 10:53:00,
2013-03-18 05:03:00,15.0,10.0,-100.00,ESE,122,7.0,9.0,79,0.00,,,0.00,0.000000,,2013-03-18 11:03:00,
2013-03-18 05:12:00,15.0,10.0,-100.00,ESE,122,7.0,9.0,79,0.00,,,0.00,0.000000,,2013-03-18 11:12:00,
2013-03-18 05:21:00,14.0,11.0,-100.00,East,90,8.0,11.0,86,0.00,,,0.00,0.000000,,2013-03-18 11:21:00,
2013-03-18 05:43:00,14.0,11.0,-100.00,East,90,8.0,11.0,86,0.00,,,0.00,0.000000,,2013-03-18 11:43:00,
2013-03-18 05:52:00,14.0,11.0,-100.00,East,90,8.0,11.0,86,0.00,,,0.00,0.000000,,2013-03-18 11:52:00,
2013-03-18 06:02:00,14.0,11.0,-100.00,East,90,8.0,11.0,86,0.00,,,0.00,0.000000,,2013-03-18 12:02:00,
2013-03-18 06:12:00,14.0,11.0,-100.00,East,90,8.0,11.0,86,0.00,,,0.00,0.000000,,2013-03-18 12:12:00,
2013-03-18 06:21:00,12.0,9.0,-100.00,East,86,11.0,14.0,87,0.00,,,0.00,0.000000,,2013-03-18 12:21:00,
2013-03-18 06:43:00,12.0,9.0,-100.00,East,86,11.0,14.0,87,0.00,,,0.00,0.000000,,2013-03-18 12:43:00,
2013-03-18 06:52:00,12.0,9.0,-100.00,East,86,11.0,14.0,87,0.00,,,0.00,0.000000,,2013-03-18 12:52:00,
2013-03-18 07:02:00,12.0,9.0,-100.00,East,86,11.0,14.0,87,0.00,,,0.00,0.000000,,2013-03-18 13:02:00,
2013-03-18 07:12:00,12.0,9.0,-100.00,East,86,11.0,14.0,87,0.00,,,0.00,0.000000,,2013-03-18 13:12:00,
2013-03-18 07:21:00,12.0,9.0,-100.00,East,85,8.0,12.0,89,0.00,,,0.00,1.000000,,2013-03-18 13:21:00,
2013-03-18 07:42:00,12.0,9.0,-100.00,East,85,8.0,12.0,89,0.00,,,0.00,1.000000,,2013-03-18 13:42:00,
2013-03-18 07:52:00,12.0,9.0,-100.00,East,85,8.0,12.0,89,0.00,,,0.00,1.000000,,2013-03-18 13:52:00,
2013-03-18 08:02:00,12.0,9.0,-100.00,East,85,8.0,12.0,89,0.00,,,0.00,1.000000,,2013-03-18 14:02:00,
2013-03-18 08:12:00,12.0,9.0,-100.00,East,85,8.0,12.0,89,0.00,,,0.00,1.000000,,2013-03-18 14:12:00,
2013-03-18 08:21:00,16.0,13.0,-100.00,East,96,6.0,10.0,86,0.00,,,0.00,59.000000,,2013-03-18 14:21:00,
2013-03-18 08:42:00,16.0,13.0,-100.00,East,96,6.0,10.0,86,0.00,,,0.00,59.000000,,2013-03-18 14:42:00,
2013-03-18 08:52:00,16.0,13.0,-100.00,East,96,6.0,10.0,86,0.00,,,0.00,59.000000,,2013-03-18 14:52:00,
2013-03-18 09:02:00,16.0,13.0,-100.00,East,96,6.0,10.0,86,0.00,,,0.00,59.000000,,2013-03-18 15:02:00,
2013-03-18 09:12:00,16.0,13.0,-100.00,East,96,6.0,10.0,86,0.00,,,0.00,59.000000,,2013-03-18 15:12:00,
2013-03-18 09:21:00,22.0,13.0,-100.00,SW,216,5.0,10.0,68,0.00,,,0.00,219.000000,,2013-03-18 15:21:00,
2013-03-18 09:43:00,22.0,13.0,-100.00,SW,216,5.0,10.0,68,0.00,,,0.00,219.000000,,2013-03-18 15:43:00,
2013-03-18 09:52:00,22.0,13.0,-100.00,SW,216,5.0,10.0,68,0.00,,,0.00,219.000000,,2013-03-18 15:52:00,
2013-03-18 10:02:00,22.0,13.0,-100.00,SW,216,5.0,10.0,68,0.00,,,0.00,219.000000,,2013-03-18 16:02:00,
2013-03-18 10:12:00,22.0,13.0,-100.00,SW,216,5.0,10.0,68,0.00,,,0.00,219.000000,,2013-03-18 16:12:00,
2013-03-18 10:21:00,28.0,17.0,-100.00,SW,230,9.0,15.0,62,0.00,,,-99.99,311.000000,,2013-03-18 16:21:00,
2013-03-18 10:42:00,28.0,17.0,-100.00,SW,230,9.0,15.0,62,0.00,,,-99.99,311.000000,,2013-03-18 16:42:00,
2013-03-18 10:52:00,28.0,17.0,-100.00,SW,230,9.0,15.0,62,0.00,,,-99.99,311.000000,,2013-03-18 16:52:00,
2013-03-18 11:12:00,28.0,17.0,-100.00,SW,230,9.0,15.0,62,0.00,,,-99.99,311.000000,,2013-03-18 17:12:00,
2013-03-18 11:43:00,35.0,13.0,-100.00,WSW,252,17.0,23.0,40,0.00,,,0.00,400.000000,,2013-03-18 17:43:00,
2013-03-18 11:52:00,35.0,13.0,-100.00,WSW,252,17.0,23.0,40,0.00,,,0.00,400.000000,,2013-03-18 17:52:00,
2013-03-18 12:21:00,38.0,6.0,-100.00,WSW,242,22.0,37.0,26,0.00,,,0.00,535.000000,,2013-03-18 18:21:00,
2013-03-18 12:42:00,38.0,6.0,-100.00,WSW,242,22.0,37.0,26,0.00,,,0.00,535.000000,,2013-03-18 18:42:00,
2013-03-18 12:52:00,38.0,6.0,-100.00,WSW,242,22.0,37.0,26,0.00,,,0.00,535.000000,,2013-03-18 18:52:00,
2013-03-18 13:02:00,38.0,6.0,-100.00,WSW,242,22.0,37.0,26,0.00,,,0.00,535.000000,,2013-03-18 19:02:00,
2013-03-18 13:12:00,38.0,6.0,-100.00,WSW,242,22.0,37.0,26,0.00,,,0.00,535.000000,,2013-03-18 19:12:00,
2013-03-18 13:21:00,37.0,4.0,-100.00,WSW,240,19.0,36.0,24,0.00,,,0.00,458.000000,,2013-03-18 19:21:00,
2013-03-18 13:42:00,37.0,4.0,-100.00,WSW,240,19.0,36.0,24,0.00,,,0.00,458.000000,,2013-03-18 19:42:00,
2013-03-18 13:52:00,37.0,4.0,-100.00,WSW,240,19.0,36.0,24,0.00,,,0.00,458.000000,,2013-03-18 19:52:00,
2013-03-18 14:02:00,37.0,4.0,-100.00,WSW,240,19.0,36.0,24,0.00,,,0.00,458.000000,,2013-03-18 20:02:00,
2013-03-18 14:12:00,37.0,4.0,-100.00,WSW,240,19.0,36.0,24,0.00,,,0.00,458.000000,,2013-03-18 20:12:00,
2013-03-18 14:21:00,37.0,4.0,-100.00,WNW,288,19.0,34.0,25,0.00,,,0.00,185.000000,,2013-03-18 20:21:00,
2013-03-18 14:43:00,37.0,4.0,-100.00,WNW,288,19.0,34.0,25,0.00,,,0.00,185.000000,,2013-03-18 20:43:00,
2013-03-18 14:52:00,37.0,4.0,-100.00,WNW,288,19.0,34.0,25,0.00,,,0.00,185.000000,,2013-03-18 20:52:00,
2013-03-18 15:02:00,37.0,4.0,-100.00,WNW,288,19.0,34.0,25,0.00,,,0.00,185.000000,,2013-03-18 21:02:00,
2013-03-18 15:11:00,37.0,4.0,-100.00,WNW,288,19.0,34.0,25,0.00,,,0.00,185.000000,,2013-03-18 21:11:00,
2013-03-18 15:21:00,38.0,1.0,-100.00,WNW,290,20.0,34.0,20,0.00,,,0.00,113.000000,,2013-03-18 21:21:00,
2013-03-18 15:43:00,38.0,1.0,-100.00,WNW,290,20.0,34.0,20,0.00,,,0.00,113.000000,,2013-03-18 21:43:00,
2013-03-18 15:53:00,38.0,1.0,-100.00,WNW,290,20.0,34.0,20,0.00,,,0.00,113.000000,,2013-03-18 21:53:00,
2013-03-18 16:03:00,38.0,1.0,-100.00,WNW,290,20.0,34.0,20,0.00,,,0.00,113.000000,,2013-03-18 22:03:00,
2013-03-18 16:12:00,38.0,1.0,-100.00,WNW,290,20.0,34.0,20,0.00,,,0.00,113.000000,,2013-03-18 22:12:00,
2013-03-18 16:21:00,41.0,1.0,-100.00,West,277,17.0,33.0,18,0.00,,,0.00,214.000000,,2013-03-18 22:21:00,
2013-03-18 16:42:00,41.0,1.0,-100.00,West,277,17.0,33.0,18,0.00,,,0.00,214.000000,,2013-03-18 22:42:00,
2013-03-18 16:52:00,41.0,1.0,-100.00,West,277,17.0,33.0,18,0.00,,,0.00,214.000000,,2013-03-18 22:52:00,
2013-03-18 17:02:00,41.0,1.0,-100.00,West,277,17.0,33.0,18,0.00,,,0.00,214.000000,,2013-03-18 23:02:00,
2013-03-18 17:12:00,41.0,1.0,-100.00,West,277,17.0,33.0,18,0.00,,,0.00,214.000000,,2013-03-18 23:12:00,
2013-03-18 17:21:00,37.0,9.0,-100.00,West,278,10.0,30.0,31,0.00,,,0.00,105.000000,,2013-03-18 23:21:00,
2013-03-18 17:43:00,37.0,9.0,-100.00,West,278,10.0,30.0,31,0.00,,,0.00,105.000000,,2013-03-18 23:43:00,
2013-03-18 17:53:00,37.0,9.0,-100.00,West,278,10.0,30.0,31,0.00,,,0.00,105.000000,,2013-03-18 23:53:00,
2013-03-18 18:02:00,37.0,9.0,-100.00,West,278,10.0,30.0,31,0.00,,,0.00,105.000000,,2013-03-19 00:02:00,
2013-03-18 18:12:00,37.0,9.0,-100.00,West,278,10.0,30.0,31,0.00,,,0.00,105.000000,,2013-03-19 00:12:00,
2013-03-18 18:21:00,37.0,7.0,-100.00,West,271,13.0,24.0,28,0.00,,,0.00,80.000000,,2013-03-19 00:21:00,
2013-03-18 18:43:00,37.0,7.0,-100.00,West,271,13.0,24.0,28,0.00,,,0.00,80.000000,,2013-03-19 00:43:00,
2013-03-18 18:52:00,37.0,7.0,-100.00,West,271,13.0,24.0,28,0.00,,,0.00,80.000000,,2013-03-19 00:52:00,
2013-03-18 19:02:00,37.0,7.0,-100.00,West,271,13.0,24.0,28,0.00,,,0.00,80.000000,,2013-03-19 01:02:00,
2013-03-18 19:11:00,37.0,7.0,-100.00,West,271,13.0,24.0,28,0.00,,,0.00,80.000000,,2013-03-19 01:11:00,
2013-03-18 19:21:00,33.0,10.0,-100.00,NNW,342,10.0,28.0,38,0.00,,,0.00,22.000000,,2013-03-19 01:21:00,
2013-03-18 19:43:00,33.0,10.0,-100.00,NNW,342,10.0,28.0,38,0.00,,,0.00,22.000000,,2013-03-19 01:43:00,
2013-03-18 19:52:00,33.0,10.0,-100.00,NNW,342,10.0,28.0,38,0.00,,,0.00,22.000000,,2013-03-19 01:52:00,
2013-03-18 20:02:00,33.0,10.0,-100.00,NNW,342,10.0,28.0,38,0.00,,,0.00,22.000000,,2013-03-19 02:02:00,
2013-03-18 20:12:00,33.0,10.0,-100.00,NNW,342,10.0,28.0,38,0.00,,,0.00,22.000000,,2013-03-19 02:12:00,
2013-03-18 20:21:00,31.0,9.0,-100.00,North,358,8.0,15.0,39,0.00,,,0.00,0.000000,,2013-03-19 02:21:00,
2013-03-18 20:43:00,31.0,9.0,-100.00,North,358,8.0,15.0,39,0.00,,,0.00,0.000000,,2013-03-19 02:43:00,
2013-03-18 20:52:00,31.0,9.0,-100.00,North,358,8.0,15.0,39,0.00,,,0.00,0.000000,,2013-03-19 02:52:00,
2013-03-18 21:02:00,31.0,9.0,-100.00,North,358,8.0,15.0,39,0.00,,,0.00,0.000000,,2013-03-19 03:02:00,
2013-03-18 21:11:00,31.0,9.0,-100.00,North,358,8.0,15.0,39,0.00,,,0.00,0.000000,,2013-03-19 03:11:00,
2013-03-18 21:21:00,31.0,13.0,-100.00,NNW,346,8.0,14.0,46,0.00,,,0.00,0.000000,,2013-03-19 03:21:00,
2013-03-18 21:43:00,31.0,13.0,-100.00,NNW,346,8.0,14.0,46,0.00,,,0.00,0.000000,,2013-03-19 03:43:00,
2013-03-18 21:53:00,31.0,13.0,-100.00,NNW,346,8.0,14.0,46,0.00,,,0.00,0.000000,,2013-03-19 03:53:00,
2013-03-18 22:03:00,31.0,13.0,-100.00,NNW,346,8.0,14.0,46,0.00,,,0.00,0.000000,,2013-03-19 04:03:00,
2013-03-18 22:13:00,31.0,13.0,-100.00,NNW,346,8.0,14.0,46,0.00,,,0.00,0.000000,,2013-03-19 04:13:00,
2013-03-18 22:21:00,29.0,12.0,-100.00,SW,227,4.0,9.0,49,0.00,,,0.00,0.000000,,2013-03-19 04:21:00,
2013-03-18 22:43:00,29.0,12.0,-100.00,SW,227,4.0,9.0,49,0.00,,,0.00,0.000000,,2013-03-19 04:43:00,
2013-03-18 22:52:00,29.0,12.0,-100.00,SW,227,4.0,9.0,49,0.00,,,0.00,0.000000,,2013-03-19 04:52:00,
2013-03-18 23:02:00,29.0,12.0,-100.00,SW,227,4.0,9.0,49,0.00,,,0.00,0.000000,,2013-03-19 05:02:00,
2013-03-18 23:11:00,29.0,12.0,-100.00,SW,227,4.0,9.0,49,0.00,,,0.00,0.000000,,2013-03-19 05:11:00,
2013-03-18 23:21:00,29.0,13.0,-100.00,NE,35,6.0,8.0,51,0.00,,,0.00,0.000000,,2013-03-19 05:21:00,
2013-03-18 23:43:00,29.0,13.0,-100.00,NE,35,6.0,8.0,51,0.00,,,0.00,0.000000,,2013-03-19 05:43:00,
2013-03-18 23:52:00,29.0,13.0,-100.00,NE,35,6.0,8.0,51,0.00,,,0.00,0.000000,,2013-03-19 05:52:00,